createdAt,value
2017-02-28T00:02:07.009Z,939.82
2017-02-28T00:04:27.688Z,939.78
2017-02-28T00:06:34.883Z,939.69
2017-02-28T00:08:32.102Z,939.68
2017-02-28T00:10:44.344Z,939.62
2017-02-28T00:12:51.524Z,939.56
2017-02-28T00:14:53.734Z,939.55
2017-02-28T00:16:41.184Z,939.5
2017-02-28T00:18:33.547Z,939.53
2017-02-28T00:20:30.990Z,939.44
2017-02-28T00:22:33.338Z,939.42
2017-02-28T00:24:30.594Z,939.4
2017-02-28T00:26:22.985Z,939.39
2017-02-28T00:28:20.293Z,939.39
2017-02-28T00:30:22.692Z,939.43
2017-02-28T00:32:19.990Z,939.38
2017-02-28T00:34:22.466Z,939.31
2017-02-28T00:36:24.706Z,939.31
2017-02-28T00:38:27.089Z,939.25
2017-02-28T00:40:34.238Z,939.3
2017-02-28T00:42:31.645Z,939.23
2017-02-28T00:44:18.992Z,939.2
2017-02-28T00:46:06.601Z,939.18
2017-02-28T00:48:03.925Z,939.14
2017-02-28T00:50:01.410Z,939.09
2017-02-28T00:52:03.776Z,939.07
2017-02-28T00:54:11.366Z,938.94
2017-02-28T00:56:14.141Z,938.83
2017-02-28T00:58:21.392Z,938.75
2017-02-28T01:00:18.742Z,938.77
2017-02-28T01:02:30.954Z,938.78
2017-02-28T01:04:18.318Z,938.76
2017-02-28T01:06:15.869Z,938.68
2017-02-28T01:08:23.344Z,938.65
2017-02-28T01:10:20.687Z,938.53
2017-02-28T01:12:18.130Z,938.46
2017-02-28T01:14:20.793Z,938.42
2017-02-28T01:16:28.043Z,938.35
2017-02-28T01:18:25.382Z,938.27
2017-02-28T01:20:27.724Z,938.23
2017-02-28T01:22:15.065Z,938.17
2017-02-28T01:24:02.456Z,938.16
2017-02-28T01:26:04.751Z,938.14
2017-02-28T01:28:11.938Z,938.09
2017-02-28T01:30:14.330Z,938.08
2017-02-28T01:32:17.186Z,938.03
2017-02-28T01:34:24.536Z,938.01
2017-02-28T01:36:32.083Z,937.97
2017-02-28T01:38:29.355Z,937.93
2017-02-28T01:40:16.812Z,937.88
2017-02-28T01:42:19.296Z,937.85
2017-02-28T01:44:26.668Z,937.85
2017-02-28T01:46:28.985Z,937.86
2017-02-28T01:48:31.317Z,937.79
2017-02-28T01:50:43.688Z,937.75
2017-02-28T01:52:40.992Z,937.73
2017-02-28T01:54:38.431Z,937.75
2017-02-28T01:56:35.674Z,937.74
2017-02-28T01:58:43.034Z,937.64
2017-02-28T02:00:55.232Z,937.55
2017-02-28T02:03:02.651Z,937.45
2017-02-28T02:05:00.212Z,937.35
2017-02-28T02:06:57.527Z,937.22
2017-02-28T02:08:44.981Z,937.15
2017-02-28T02:10:47.132Z,937.01
2017-02-28T02:12:54.297Z,936.9
2017-02-28T02:14:51.705Z,936.82
2017-02-28T02:16:53.916Z,936.64
2017-02-28T02:18:51.174Z,936.54
2017-02-28T02:20:53.690Z,936.41
2017-02-28T02:22:51.085Z,936.39
2017-02-28T02:24:43.462Z,936.41
2017-02-28T02:26:35.886Z,936.42
2017-02-28T02:28:33.152Z,936.33
2017-02-28T02:30:30.484Z,936.32
2017-02-28T02:32:22.788Z,936.3
2017-02-28T02:34:14.970Z,936.22
2017-02-28T02:36:27.184Z,936.23
2017-02-28T02:38:24.725Z,936.29
2017-02-28T02:40:32.279Z,936.3
2017-02-28T02:42:29.925Z,936.25
2017-02-28T02:44:17.513Z,936.2
2017-02-28T02:46:09.815Z,936.14
2017-02-28T02:48:12.060Z,936.09
2017-02-28T02:50:19.248Z,936.08
2017-02-28T02:52:16.659Z,936.04
2017-02-28T02:54:18.912Z,936
2017-02-28T02:56:26.172Z,935.98
2017-02-28T02:58:23.397Z,935.89
2017-02-28T03:00:20.672Z,935.95
2017-02-28T03:02:23.162Z,1173.38
2017-02-28T03:04:20.430Z,936
2017-02-28T03:06:12.708Z,935.96
2017-02-28T03:08:15.178Z,935.92
2017-02-28T03:10:12.629Z,935.91
2017-02-28T03:12:09.981Z,935.95
2017-02-28T03:14:02.474Z,935.91
2017-02-28T03:16:04.785Z,935.82
2017-02-28T03:18:17.381Z,935.84
2017-02-28T03:20:09.798Z,935.91
2017-02-28T03:22:07.014Z,935.94
2017-02-28T03:24:04.321Z,936.01
2017-02-28T03:26:01.600Z,936
2017-02-28T03:28:04.044Z,936
2017-02-28T03:30:11.239Z,936.07
2017-02-28T03:32:18.621Z,936.05
2017-02-28T03:34:20.952Z,936.05
2017-02-28T03:36:18.200Z,936
2017-02-28T03:38:20.528Z,936.07
2017-02-28T03:40:22.948Z,936.11
2017-02-28T03:42:20.363Z,936.23
2017-02-28T03:44:17.600Z,936.23
2017-02-28T03:46:29.912Z,936.24
2017-02-28T03:48:37.191Z,936.26
2017-02-28T03:50:44.739Z,936.2
2017-02-28T03:52:57.457Z,936.21
2017-02-28T03:54:59.841Z,936.22
2017-02-28T03:57:02.203Z,936.23
2017-02-28T03:59:04.557Z,936.2
2017-02-28T04:01:07.016Z,936.16
2017-02-28T04:03:04.322Z,936.22
2017-02-28T04:05:10.447Z,936.22
2017-02-28T04:07:07.760Z,936.19
2017-02-28T04:09:15.145Z,936.18
2017-02-28T04:11:17.524Z,936.08
2017-02-28T04:13:14.749Z,936.15
2017-02-28T04:15:16.955Z,936.83
2017-02-28T04:17:19.164Z,937.37
2017-02-28T04:19:26.453Z,937.61
2017-02-28T04:21:28.862Z,937.82
2017-02-28T04:23:36.267Z,937.75
2017-02-28T04:25:43.563Z,937.68
2017-02-28T04:27:41.452Z,937.73
2017-02-28T04:29:33.687Z,937.94
2017-02-28T04:31:26.218Z,938.2
2017-02-28T04:33:23.533Z,938.21
2017-02-28T04:35:15.945Z,938.39
2017-02-28T04:37:08.284Z,938.5
2017-02-28T04:39:10.704Z,938.75
2017-02-28T04:41:18.299Z,938.9
2017-02-28T04:43:20.579Z,938.94
2017-02-28T04:45:27.937Z,939.37
2017-02-28T04:47:20.324Z,939.41
2017-02-28T04:49:17.705Z,939.64
2017-02-28T04:51:19.976Z,939.65
2017-02-28T04:53:22.280Z,939.89
2017-02-28T04:55:19.527Z,939.96
2017-02-28T04:57:16.874Z,940.14
2017-02-28T04:59:09.337Z,940.2
2017-02-28T05:01:06.853Z,940.24
2017-02-28T05:03:09.438Z,940.17
2017-02-28T05:05:06.809Z,940.11
2017-02-28T05:07:14.177Z,940.11
2017-02-28T05:09:11.587Z,940.22
2017-02-28T05:11:08.924Z,940.37
2017-02-28T05:13:21.347Z,940.32
2017-02-28T05:15:03.728Z,940.36
2017-02-28T05:17:01.059Z,940.38
2017-02-28T05:19:03.465Z,940.38
2017-02-28T05:21:00.905Z,940.37
2017-02-28T05:22:58.179Z,940.44
2017-02-28T05:25:05.562Z,940.48
2017-02-28T05:27:02.787Z,940.63
2017-02-28T05:29:05.285Z,940.81
2017-02-28T05:31:07.714Z,940.82
2017-02-28T05:33:09.981Z,940.87
2017-02-28T05:35:07.288Z,940.92
2017-02-28T05:37:05.140Z,940.96
2017-02-28T05:39:03.090Z,940.93
2017-02-28T05:41:05.348Z,940.98
2017-02-28T05:42:57.770Z,941.11
2017-02-28T05:44:55.049Z,941.02
2017-02-28T05:47:02.490Z,941.3
2017-02-28T05:48:59.841Z,941.2
2017-02-28T05:51:02.053Z,941.08
2017-02-28T05:52:54.489Z,941.28
2017-02-28T05:55:02.507Z,941.25
2017-02-28T05:56:59.818Z,941.43
2017-02-28T05:58:47.300Z,941.48
2017-02-28T06:00:44.722Z,941.64
2017-02-28T06:02:42.046Z,941.74
2017-02-28T06:04:44.487Z,941.81
2017-02-28T06:06:36.688Z,941.9
2017-02-28T06:08:33.894Z,941.94
2017-02-28T06:10:41.355Z,941.94
2017-02-28T06:12:44.059Z,941.98
2017-02-28T06:14:41.306Z,942.08
2017-02-28T06:16:43.635Z,942.13
2017-02-28T06:18:35.940Z,942.2
2017-02-28T06:20:23.213Z,942.22
2017-02-28T06:22:25.368Z,942.38
2017-02-28T06:24:22.675Z,942.46
2017-02-28T06:26:24.905Z,942.5
2017-02-28T06:28:32.454Z,942.5
2017-02-28T06:30:25.082Z,942.53
2017-02-28T06:32:12.745Z,942.49
2017-02-28T06:34:25.220Z,942.43
2017-02-28T06:36:27.718Z,942.54
2017-02-28T06:38:35.133Z,942.59
2017-02-28T06:40:47.261Z,942.71
2017-02-28T06:42:49.717Z,942.82
2017-02-28T06:44:47.192Z,942.92
2017-02-28T06:46:41.976Z,942.99
2017-02-28T06:48:39.472Z,943.02
2017-02-28T06:50:41.811Z,943.09
2017-02-28T06:52:44.210Z,943.1
2017-02-28T06:54:46.424Z,943.14
2017-02-28T06:56:38.648Z,943.1
2017-02-28T06:58:40.917Z,943.13
2017-02-28T07:00:38.134Z,943.16
2017-02-28T07:02:40.399Z,943.24
2017-02-28T07:04:47.570Z,943.14
2017-02-28T07:06:49.839Z,943.09
2017-02-28T07:08:52.168Z,943.11
2017-02-28T07:10:54.815Z,943.04
2017-02-28T07:12:52.236Z,943.03
2017-02-28T07:14:54.418Z,943.04
2017-02-28T07:16:41.822Z,942.98
2017-02-28T07:18:34.183Z,942.98
2017-02-28T07:20:41.755Z,942.98
2017-02-28T07:22:39.247Z,942.96
2017-02-28T07:24:46.594Z,942.94
2017-02-28T07:26:44.033Z,942.91
2017-02-28T07:28:41.629Z,942.91
2017-02-28T07:30:48.986Z,942.88
2017-02-28T07:32:51.329Z,942.89
2017-02-28T07:34:58.624Z,942.88
2017-02-28T07:37:00.828Z,942.86
2017-02-28T07:39:03.272Z,942.87
2017-02-28T07:41:00.698Z,942.82
2017-02-28T07:43:09.176Z,942.84
2017-02-28T07:45:16.765Z,942.79
2017-02-28T07:47:19.325Z,942.73
2017-02-28T07:49:16.653Z,942.74
2017-02-28T07:51:09.653Z,942.73
2017-02-28T07:53:15.237Z,942.73
2017-02-28T07:55:23.951Z,942.73
2017-02-28T07:57:23.180Z,942.71
2017-02-28T07:59:15.933Z,942.67
2017-02-28T08:01:13.590Z,942.76
2017-02-28T08:03:26.207Z,942.7
2017-02-28T08:05:28.655Z,942.64
2017-02-28T08:07:31.753Z,942.63
2017-02-28T08:09:51.596Z,942.66
2017-02-28T08:11:38.938Z,942.63
2017-02-28T08:13:42.072Z,942.75
2017-02-28T08:15:46.729Z,942.79
2017-02-28T08:17:39.897Z,942.76
2017-02-28T08:19:49.015Z,942.75
2017-02-28T08:21:46.580Z,942.75
2017-02-28T08:23:45.022Z,942.61
2017-02-28T08:25:47.695Z,942.62
2017-02-28T08:27:40.335Z,942.61
2017-02-28T08:29:32.932Z,942.67
2017-02-28T08:31:40.507Z,942.65
2017-02-28T08:33:39.373Z,942.69
2017-02-28T08:35:47.898Z,942.64
2017-02-28T08:37:51.545Z,942.66
2017-02-28T08:39:53.905Z,942.55
2017-02-28T08:42:08.545Z,942.6
2017-02-28T08:44:11.083Z,942.65
2017-02-28T08:46:13.331Z,942.62
2017-02-28T08:48:41.972Z,942.53
2017-02-28T08:50:54.286Z,942.48
2017-02-28T08:52:52.407Z,942.51
2017-02-28T08:54:50.133Z,942.53
2017-02-28T08:56:42.623Z,942.48
2017-02-28T08:58:44.952Z,942.33
2017-02-28T09:00:49.708Z,942.36
2017-02-28T09:02:52.455Z,942.27
2017-02-28T09:04:59.998Z,942.21
2017-02-28T09:06:52.383Z,942.19
2017-02-28T09:08:49.890Z,942.27
2017-02-28T09:10:57.283Z,942.18
2017-02-28T09:13:05.002Z,942.15
2017-02-28T09:15:02.363Z,942.1
2017-02-28T09:16:54.745Z,942.05
2017-02-28T09:18:52.045Z,942.04
2017-02-28T09:20:54.475Z,942.11
2017-02-28T09:22:56.841Z,942.1
2017-02-28T09:24:54.088Z,942.14
2017-02-28T09:26:51.388Z,942.02
2017-02-28T09:28:43.686Z,941.94
2017-02-28T09:30:47.061Z,941.86
2017-02-28T09:32:34.397Z,941.8
2017-02-28T09:34:41.721Z,941.8
2017-02-28T09:36:49.208Z,941.77
2017-02-28T09:39:01.715Z,941.73
2017-02-28T09:41:09.122Z,941.7
2017-02-28T09:43:06.522Z,941.63
2017-02-28T09:45:12.015Z,941.61
2017-02-28T09:47:24.616Z,941.54
2017-02-28T09:49:36.912Z,941.51
2017-02-28T09:51:44.381Z,941.52
2017-02-28T09:53:46.600Z,941.5
2017-02-28T09:55:48.876Z,941.35
2017-02-28T09:57:41.465Z,941.49
2017-02-28T09:59:38.778Z,941.41
2017-02-28T10:02:09.255Z,941.29
2017-02-28T10:04:08.158Z,941.27
2017-02-28T10:06:06.500Z,941.24
2017-02-28T10:08:08.795Z,941.07
2017-02-28T10:09:56.211Z,941.03
2017-02-28T10:12:03.496Z,940.96
2017-02-28T10:13:55.974Z,940.97
2017-02-28T10:16:08.349Z,941
2017-02-28T10:18:00.806Z,941.14
2017-02-28T10:20:03.350Z,941.18
2017-02-28T10:22:15.804Z,941.1
2017-02-28T10:24:08.320Z,941.14
2017-02-28T10:26:05.955Z,941.09
2017-02-28T10:28:13.322Z,941.08
2017-02-28T10:30:05.990Z,940.99
2017-02-28T10:32:13.450Z,941.01
2017-02-28T10:34:21.763Z,940.95
2017-02-28T10:36:24.225Z,940.8
2017-02-28T10:38:26.960Z,940.83
2017-02-28T10:40:24.463Z,940.75
2017-02-28T10:42:31.975Z,940.82
2017-02-28T10:44:29.310Z,940.81
2017-02-28T10:46:31.764Z,940.75
2017-02-28T10:48:34.285Z,940.71
2017-02-28T10:50:46.691Z,940.65
2017-02-28T10:52:49.170Z,940.57
2017-02-28T10:54:54.307Z,940.54
2017-02-28T10:56:41.784Z,940.53
2017-02-28T10:58:49.200Z,940.5
2017-02-28T11:00:36.779Z,940.52
2017-02-28T11:02:29.729Z,940.4
2017-02-28T11:04:42.420Z,940.33
2017-02-28T11:06:44.774Z,940.24
2017-02-28T11:08:42.185Z,940.11
2017-02-28T11:10:35.804Z,939.97
2017-02-28T11:12:39.448Z,939.85
2017-02-28T11:14:47.779Z,939.67
2017-02-28T11:16:45.207Z,939.53
2017-02-28T11:18:47.588Z,939.48
2017-02-28T11:20:50.014Z,939.74
2017-02-28T11:22:42.601Z,939.79
2017-02-28T11:24:45.068Z,939.67
2017-02-28T11:26:37.549Z,939.7
2017-02-28T11:28:35.959Z,939.55
2017-02-28T11:30:38.424Z,939.45
2017-02-28T11:32:40.776Z,939.39
2017-02-28T11:34:38.146Z,939.75
2017-02-28T11:36:40.674Z,939.63
2017-02-28T11:38:53.170Z,939.38
2017-02-28T11:40:55.726Z,939.43
2017-02-28T11:42:44.460Z,939.32
2017-02-28T11:44:57.009Z,939.47
2017-02-28T11:47:04.440Z,939.26
2017-02-28T11:49:01.969Z,939.18
2017-02-28T11:50:59.377Z,939.27
2017-02-28T11:52:56.667Z,939.23
2017-02-28T11:54:59.037Z,939.24
2017-02-28T11:57:01.453Z,938.99
2017-02-28T11:58:53.917Z,938.99
2017-02-28T12:00:46.338Z,939.06
2017-02-28T12:02:58.552Z,939.15
2017-02-28T12:04:56.014Z,939.04
2017-02-28T12:07:03.291Z,938.95
2017-02-28T12:09:00.743Z,938.9
2017-02-28T12:11:03.242Z,938.65
2017-02-28T12:13:05.876Z,938.58
2017-02-28T12:14:58.532Z,938.52
2017-02-28T12:16:56.949Z,938.59
2017-02-28T12:18:50.363Z,938.65
2017-02-28T12:20:52.665Z,938.71
2017-02-28T12:23:02.322Z,938.62
2017-02-28T12:25:13.815Z,938.59
2017-02-28T12:27:17.771Z,938.43
2017-02-28T12:29:10.379Z,938.38
2017-02-28T12:31:02.806Z,938.29
2017-02-28T12:33:05.087Z,938.36
2017-02-28T12:35:02.621Z,938.2
2017-02-28T12:37:09.965Z,938.1
2017-02-28T12:39:07.524Z,938.04
2017-02-28T12:41:16.472Z,937.81
2017-02-28T12:43:09.061Z,937.76
2017-02-28T12:45:16.520Z,937.53
2017-02-28T12:47:08.911Z,937.54
2017-02-28T12:49:11.531Z,937.43
2017-02-28T12:51:18.863Z,937.27
2017-02-28T12:53:16.433Z,937.24
2017-02-28T12:55:18.725Z,937.12
2017-02-28T12:57:11.634Z,937.08
2017-02-28T12:59:18.895Z,936.92
2017-02-28T13:01:11.189Z,936.73
2017-02-28T13:03:13.556Z,936.66
2017-02-28T13:05:10.789Z,936.57
2017-02-28T13:07:17.996Z,936.49
2017-02-28T13:09:25.457Z,936.55
2017-02-28T13:11:32.873Z,936.77
2017-02-28T13:13:25.198Z,936.77
2017-02-28T13:15:32.452Z,936.88
2017-02-28T13:17:29.827Z,936.76
2017-02-28T13:19:27.306Z,936.73
2017-02-28T13:21:24.597Z,936.91
2017-02-28T13:23:21.863Z,936.9
2017-02-28T13:25:29.402Z,936.64
2017-02-28T13:27:31.816Z,936.49
2017-02-28T13:29:34.310Z,936.43
2017-02-28T13:31:31.817Z,936.44
2017-02-28T13:33:29.143Z,936.3
2017-02-28T13:35:26.536Z,936.31
2017-02-28T13:37:18.915Z,936.37
2017-02-28T13:39:21.310Z,936.37
2017-02-28T13:41:08.889Z,936.31
2017-02-28T13:42:56.157Z,936.24
2017-02-28T13:44:58.380Z,936.27
2017-02-28T13:47:05.882Z,936.22
2017-02-28T13:49:08.324Z,936.19
2017-02-28T13:51:10.639Z,936.2
2017-02-28T13:53:18.080Z,936.13
2017-02-28T13:55:15.330Z,936.1
2017-02-28T13:57:07.811Z,936.03
2017-02-28T13:59:10.106Z,935.95
2017-02-28T14:01:12.516Z,935.86
2017-02-28T14:03:19.895Z,936.07
2017-02-28T14:05:22.195Z,936.28
2017-02-28T14:07:24.814Z,936.23
2017-02-28T14:09:27.514Z,936.19
2017-02-28T14:11:39.847Z,936.27
2017-02-28T14:13:42.249Z,936.21
2017-02-28T14:15:39.837Z,936.09
2017-02-28T14:17:47.188Z,936.01
2017-02-28T14:20:03.314Z,935.9
2017-02-28T14:22:10.538Z,935.86
2017-02-28T14:24:16.274Z,935.82
2017-02-28T14:26:36.961Z,935.59
2017-02-28T14:28:45.518Z,935.5
2017-02-28T14:30:37.954Z,935.45
2017-02-28T14:32:40.511Z,935.41
2017-02-28T14:34:37.879Z,935.36
2017-02-28T14:36:35.260Z,935.43
2017-02-28T14:38:37.630Z,935.49
2017-02-28T14:40:40.426Z,935.52
2017-02-28T14:42:37.967Z,935.51
2017-02-28T14:44:40.334Z,935.56
2017-02-28T14:46:32.649Z,935.51
2017-02-28T14:48:40.049Z,935.55
2017-02-28T14:50:32.527Z,935.5
2017-02-28T14:52:24.787Z,935.62
2017-02-28T14:54:22.157Z,935.71
2017-02-28T14:56:14.574Z,935.8
2017-02-28T14:58:11.876Z,935.88
2017-02-28T15:00:19.414Z,935.86
2017-02-28T15:02:26.803Z,935.84
2017-02-28T15:04:39.422Z,935.79
2017-02-28T15:06:41.832Z,935.73
2017-02-28T15:08:34.442Z,935.74
2017-02-28T15:10:31.913Z,935.68
2017-02-28T15:12:34.592Z,935.7
2017-02-28T15:14:22.049Z,935.84
2017-02-28T15:16:14.386Z,935.85
2017-02-28T15:18:16.851Z,935.77
2017-02-28T15:19:59.245Z,935.9
2017-02-28T15:21:56.502Z,935.98
2017-02-28T15:23:58.958Z,935.88
2017-02-28T15:25:51.355Z,935.69
2017-02-28T15:27:48.742Z,935.74
2017-02-28T15:29:46.197Z,935.68
2017-02-28T15:31:53.633Z,935.66
2017-02-28T15:33:50.989Z,935.69
2017-02-28T15:35:58.557Z,935.6
2017-02-28T15:37:46.068Z,935.57
2017-02-28T15:39:43.592Z,935.45
2017-02-28T15:41:30.995Z,935.48
2017-02-28T15:43:23.269Z,935.64
2017-02-28T15:45:15.588Z,935.76
2017-02-28T15:47:23.020Z,935.85
2017-02-28T15:49:20.561Z,935.87
2017-02-28T15:51:32.875Z,935.87
2017-02-28T15:53:40.311Z,935.82
2017-02-28T15:55:42.827Z,935.83
2017-02-28T15:57:50.440Z,935.82
2017-02-28T15:59:57.775Z,935.87
2017-02-28T16:01:50.403Z,935.98
2017-02-28T16:03:52.890Z,936.23
2017-02-28T16:06:00.262Z,936.4
2017-02-28T16:08:02.721Z,936.32
2017-02-28T16:10:05.361Z,936.17
2017-02-28T16:12:07.656Z,936.09
2017-02-28T16:14:05.033Z,936.16
2017-02-28T16:15:57.685Z,936.14
2017-02-28T16:18:00.098Z,936.05
2017-02-28T16:19:52.549Z,936.09
2017-02-28T16:21:55.098Z,936.18
2017-02-28T16:23:57.365Z,936.28
2017-02-28T16:25:54.700Z,936.29
2017-02-28T16:27:52.357Z,936.3
2017-02-28T16:29:49.662Z,936.47
2017-02-28T16:31:47.079Z,936.66
2017-02-28T16:33:44.488Z,936.89
2017-02-28T16:35:41.759Z,937.07
2017-02-28T16:37:44.113Z,937.33
2017-02-28T16:39:51.487Z,937.67
2017-02-28T16:41:43.871Z,938.01
2017-02-28T16:43:46.258Z,938.3
2017-02-28T16:45:38.708Z,938.33
2017-02-28T16:47:52.074Z,938.43
2017-02-28T16:49:54.526Z,938.8
2017-02-28T16:51:52.004Z,938.76
2017-02-28T16:53:54.557Z,1173.38
2017-02-28T16:55:51.987Z,1173.38
2017-02-28T16:57:59.488Z,1173.38
2017-02-28T17:00:01.869Z,1173.38
2017-02-28T17:02:04.189Z,1173.38
2017-02-28T17:04:01.841Z,1173.38
2017-02-28T17:06:09.314Z,1173.38
2017-02-28T17:08:11.827Z,1173.38
2017-02-28T17:10:19.320Z,1173.38
2017-02-28T17:12:11.709Z,1173.38
2017-02-28T17:14:04.298Z,1173.38
2017-02-28T17:15:56.784Z,1173.38
2017-02-28T17:17:59.223Z,1173.38
2017-02-28T17:20:07.104Z,1173.38
2017-02-28T17:22:09.418Z,1173.38
2017-02-28T17:24:06.833Z,1173.38
2017-02-28T17:25:59.376Z,1173.38
2017-02-28T17:28:06.724Z,1173.38
2017-02-28T17:29:59.062Z,1173.38
2017-02-28T17:32:06.547Z,1173.38
2017-02-28T17:33:59.041Z,1173.38
2017-02-28T17:36:06.338Z,1173.38
2017-02-28T17:38:08.794Z,1173.38
2017-02-28T17:39:51.211Z,1173.38
2017-02-28T17:41:58.609Z,1173.38
2017-02-28T17:44:01.173Z,1173.38
2017-02-28T17:45:54.041Z,1173.38
2017-02-28T17:47:52.510Z,1173.38
2017-02-28T17:49:50.955Z,1173.38
2017-02-28T17:52:03.333Z,1173.38
2017-02-28T17:53:52.903Z,1173.38
2017-02-28T17:56:10.602Z,1173.38
2017-02-28T17:58:17.870Z,1173.38
2017-02-28T18:00:15.348Z,1173.38
2017-02-28T18:02:10.668Z,1173.38
2017-02-28T18:04:13.433Z,1173.38
2017-02-28T18:06:00.951Z,1173.38
2017-02-28T18:07:58.375Z,1173.38
2017-02-28T18:09:55.815Z,1173.38
2017-02-28T18:12:03.583Z,1173.38
2017-02-28T18:13:59.338Z,1173.38
2017-02-28T18:15:57.015Z,1173.38
2017-02-28T18:18:05.053Z,1173.38
2017-02-28T18:20:12.980Z,1173.38
2017-02-28T18:22:10.757Z,1173.38
2017-02-28T18:24:08.329Z,1173.38
2017-02-28T18:26:11.029Z,1173.38
2017-02-28T18:28:08.761Z,1173.38
2017-02-28T18:30:11.357Z,1173.38
2017-02-28T18:32:13.849Z,1173.38
2017-02-28T18:34:26.470Z,1173.38
2017-02-28T18:36:28.966Z,1173.38
2017-02-28T18:38:31.553Z,1173.38
2017-02-28T18:40:34.106Z,1173.38
2017-02-28T18:42:36.710Z,1173.38
2017-02-28T18:44:39.228Z,1173.38
2017-02-28T18:46:31.620Z,1173.38
2017-02-28T18:48:23.977Z,1173.38
2017-02-28T18:50:26.658Z,1173.38
2017-02-28T18:52:24.220Z,1173.38
2017-02-28T18:54:26.997Z,1173.38
2017-02-28T18:56:19.704Z,1173.38
2017-02-28T18:58:27.182Z,1173.38
2017-02-28T19:00:14.865Z,1173.38
2017-02-28T19:02:07.554Z,1173.38
2017-02-28T19:04:05.447Z,1173.38
2017-02-28T19:06:07.900Z,1173.38
2017-02-28T19:08:20.289Z,1173.38
2017-02-28T19:10:22.876Z,1173.38
2017-02-28T19:12:30.756Z,1173.38
2017-02-28T19:14:28.624Z,1173.38
2017-02-28T19:16:42.055Z,1173.38
2017-02-28T19:18:40.155Z,1173.38
2017-02-28T19:20:32.717Z,1173.38
2017-02-28T19:22:35.110Z,1173.38
2017-02-28T19:24:44.483Z,1173.38
2017-02-28T19:27:06.062Z,1173.38
2017-02-28T19:29:28.486Z,1173.38
2017-02-28T19:31:36.291Z,1173.38
2017-02-28T19:33:43.609Z,1173.38
2017-02-28T19:35:56.132Z,1173.38
2017-02-28T19:37:43.786Z,1173.38
2017-02-28T19:39:41.412Z,1173.38
2017-02-28T19:41:24.071Z,1173.38
2017-02-28T19:43:11.457Z,1173.38
2017-02-28T19:45:18.818Z,1173.38
2017-02-28T19:47:31.124Z,1173.38
2017-02-28T19:49:38.533Z,1173.38
2017-02-28T19:51:31.158Z,1173.38
2017-02-28T19:53:18.604Z,1173.38
2017-02-28T19:55:21.271Z,1173.38
2017-02-28T19:57:08.810Z,1173.38
2017-02-28T19:59:16.643Z,1173.38
2017-02-28T20:01:09.190Z,1173.38
2017-02-28T20:03:11.790Z,1173.38
2017-02-28T20:05:14.132Z,1173.38
2017-02-28T20:07:21.454Z,1173.38
2017-02-28T20:09:23.811Z,1173.38
2017-02-28T20:11:26.087Z,1173.38
2017-02-28T20:13:38.611Z,1173.38
2017-02-28T20:15:31.319Z,1173.38
2017-02-28T20:17:43.790Z,1173.38
2017-02-28T20:19:46.547Z,1173.38
2017-02-28T20:21:49.023Z,1173.38
2017-02-28T20:23:56.475Z,1173.38
2017-02-28T20:25:49.064Z,1173.38
2017-02-28T20:27:31.704Z,1173.38
2017-02-28T20:29:19.252Z,1173.38
2017-02-28T20:31:27.741Z,1173.38
2017-02-28T20:33:35.892Z,1173.38
2017-02-28T20:35:35.415Z,1173.38
2017-02-28T20:37:39.504Z,1173.38
2017-02-28T20:39:36.881Z,1173.38
2017-02-28T20:41:34.649Z,1173.38
2017-02-28T20:43:37.071Z,1173.38
2017-02-28T20:45:29.488Z,1173.38
2017-02-28T20:47:31.850Z,1173.38
2017-02-28T20:49:29.380Z,1173.38
2017-02-28T20:51:31.884Z,1173.38
2017-02-28T20:53:39.229Z,1173.38
2017-02-28T20:55:51.700Z,1173.38
2017-02-28T21:00:07.123Z,0
2017-02-28T21:01:54.730Z,0
2017-02-28T21:03:57.001Z,0
2017-02-28T21:05:59.367Z,0
2017-02-28T21:07:51.773Z,0
2017-02-28T21:09:49.886Z,0
2017-02-28T21:11:43.852Z,0
2017-02-28T21:13:41.660Z,0
2017-02-28T21:15:59.150Z,0
2017-02-28T21:18:09.435Z,0
2017-02-28T21:20:15.829Z,0
2017-02-28T21:22:11.939Z,0
2017-02-28T21:24:21.443Z,0
2017-02-28T21:26:19.246Z,0
2017-02-28T21:28:19.222Z,0
2017-02-28T21:30:29.719Z,0
2017-02-28T21:32:33.893Z,0
2017-02-28T21:34:37.112Z,0
2017-02-28T21:36:41.906Z,0
2017-02-28T21:38:36.782Z,0
2017-02-28T21:40:40.801Z,0
2017-02-28T21:42:54.466Z,0
2017-02-28T21:44:54.085Z,0
2017-02-28T21:47:00.864Z,0
2017-02-28T21:49:02.911Z,0
2017-02-28T21:51:11.008Z,0
2017-02-28T21:53:05.731Z,0
2017-02-28T21:55:18.552Z,0
2017-02-28T21:57:26.651Z,0
2017-02-28T21:59:32.526Z,0
2017-02-28T22:01:36.992Z,0
2017-02-28T22:03:57.778Z,0
2017-02-28T22:05:57.092Z,0
2017-02-28T22:08:05.500Z,0
2017-02-28T22:10:16.588Z,0
2017-02-28T22:12:21.704Z,0
2017-02-28T22:14:24.445Z,0
2017-02-28T22:16:35.400Z,0
2017-02-28T22:18:35.422Z,0
2017-02-28T22:20:30.005Z,0
2017-02-28T22:22:43.069Z,0
2017-02-28T22:24:54.276Z,0
2017-02-28T22:27:07.451Z,0
2017-02-28T22:29:00.112Z,0
2017-02-28T22:31:02.513Z,0
2017-02-28T22:33:10.085Z,0
2017-02-28T22:35:02.419Z,0
2017-02-28T22:37:11.299Z,0
2017-02-28T22:39:13.734Z,0
2017-02-28T22:41:01.214Z,0
2017-02-28T22:43:03.414Z,0
2017-02-28T22:44:55.701Z,0
2017-02-28T22:47:07.989Z,0
2017-02-28T22:49:10.369Z,0
2017-02-28T22:51:07.938Z,0
2017-02-28T22:53:11.442Z,0
2017-02-28T22:55:08.899Z,0
2017-02-28T22:57:16.211Z,0
2017-02-28T22:59:18.615Z,0
2017-02-28T23:01:13.018Z,0
2017-02-28T23:03:10.390Z,0
2017-02-28T23:05:12.653Z,0
2017-02-28T23:07:05.043Z,0
2017-02-28T23:09:12.319Z,0
2017-02-28T23:11:15.550Z,0
2017-02-28T23:13:22.904Z,0
2017-02-28T23:15:20.452Z,0
2017-02-28T23:17:18.321Z,0
2017-02-28T23:19:20.738Z,0
2017-02-28T23:21:23.090Z,0
2017-02-28T23:23:25.528Z,0
2017-02-28T23:25:18.068Z,0
2017-02-28T23:27:15.469Z,0
2017-02-28T23:29:18.092Z,0
2017-02-28T23:31:25.311Z,0
2017-02-28T23:33:38.056Z,0
2017-02-28T23:35:30.603Z,0
2017-02-28T23:37:32.807Z,0
2017-02-28T23:39:35.018Z,0
2017-02-28T23:41:32.408Z,0
2017-02-28T23:43:34.649Z,0
2017-02-28T23:45:37.005Z,0
2017-02-28T23:47:34.196Z,0
2017-02-28T23:49:46.354Z,0
2017-02-28T23:51:53.530Z,0
2017-02-28T23:53:40.907Z,0
2017-02-28T23:55:43.133Z,0
2017-02-28T23:57:50.283Z,0
2017-02-28T23:59:37.556Z,0
